sensor_id;sensor_type;location;lat;lon;timestamp;pressure;altitude;pressure_sealevel;temperature;humidity
3254;BME280;1639;42.804;23.342;2023-07-13T00:00:27;71890.75;;;-148.52;62.48
3254;BME280;1639;42.804;23.342;2023-07-13T00:02:53;71874.22;;;-148.52;62.55
3254;BME280;1639;42.804;23.342;2023-07-13T00:05:20;71880.41;;;-148.52;62.34
3254;BME280;1639;42.804;23.342;2023-07-13T00:07:45;71876.28;;;-148.52;61.90
3254;BME280;1639;42.804;23.342;2023-07-13T00:10:11;71892.81;;;-148.52;62.19
3254;BME280;1639;42.804;23.342;2023-07-13T00:12:38;71907.31;;;-148.52;62.61
3254;BME280;1639;42.804;23.342;2023-07-13T00:15:07;71905.22;;;-148.52;62.69
3254;BME280;1639;42.804;23.342;2023-07-13T00:17:33;71907.31;;;-148.52;62.95
3254;BME280;1639;42.804;23.342;2023-07-13T00:19:58;71903.16;;;-148.52;62.72
3254;BME280;1639;42.804;23.342;2023-07-13T00:22:24;71894.91;;;-148.52;62.75
3254;BME280;1639;42.804;23.342;2023-07-13T00:24:52;71932.13;;;-148.52;63.59
3254;BME280;1639;42.804;23.342;2023-07-13T00:27:18;71911.44;;;-148.52;63.64
3254;BME280;1639;42.804;23.342;2023-07-13T00:29:44;71907.31;;;-148.52;63.37
3254;BME280;1639;42.804;23.342;2023-07-13T00:32:10;71899.03;;;-148.52;63.34
3254;BME280;1639;42.804;23.342;2023-07-13T00:34:37;71905.22;;;-148.52;63.35
3254;BME280;1639;42.804;23.342;2023-07-13T00:37:03;71905.22;;;-148.52;63.12
3254;BME280;1639;42.804;23.342;2023-07-13T00:39:32;71919.72;;;-148.52;63.68
3254;BME280;1639;42.804;23.342;2023-07-13T00:41:57;71909.38;;;-148.52;63.55
3254;BME280;1639;42.804;23.342;2023-07-13T00:44:23;71936.25;;;-148.52;64.35
3254;BME280;1639;42.804;23.342;2023-07-13T00:46:49;71938.31;;;-148.52;64.81
3254;BME280;1639;42.804;23.342;2023-07-13T00:49:17;71954.84;;;-148.52;65.85
3254;BME280;1639;42.804;23.342;2023-07-13T00:51:49;71950.72;;;-148.52;66.17
3254;BME280;1639;42.804;23.342;2023-07-13T00:54:37;71979.66;;;-148.52;66.81
3254;BME280;1639;42.804;23.342;2023-07-13T00:57:07;71983.81;;;-148.52;67.22
3254;BME280;1639;42.804;23.342;2023-07-13T00:59:35;71987.94;;;-148.52;67.51
3254;BME280;1639;42.804;23.342;2023-07-13T01:02:02;71992.06;;;-148.52;67.83
3254;BME280;1639;42.804;23.342;2023-07-13T01:04:28;72006.56;;;-148.52;68.42
3254;BME280;1639;42.804;23.342;2023-07-13T01:06:53;72008.63;;;-148.52;68.62
3254;BME280;1639;42.804;23.342;2023-07-13T01:09:20;72008.63;;;-148.52;69.48
3254;BME280;1639;42.804;23.342;2023-07-13T01:11:46;72027.22;;;-148.52;70.40
3254;BME280;1639;42.804;23.342;2023-07-13T01:14:12;72012.75;;;-148.52;70.15
3254;BME280;1639;42.804;23.342;2023-07-13T01:16:40;72002.41;;;-148.52;69.71
3254;BME280;1639;42.804;23.342;2023-07-13T01:19:23;71994.13;;;-148.52;69.53
3254;BME280;1639;42.804;23.342;2023-07-13T01:21:55;71987.94;;;-148.52;69.10
3254;BME280;1639;42.804;23.342;2023-07-13T01:24:20;71992.06;;;-148.52;68.90
3254;BME280;1639;42.804;23.342;2023-07-13T01:26:45;71996.22;;;-148.52;69.02
3254;BME280;1639;42.804;23.342;2023-07-13T01:29:11;72000.34;;;-148.52;68.67
3254;BME280;1639;42.804;23.342;2023-07-13T01:31:36;72008.63;;;-148.52;68.62
3254;BME280;1639;42.804;23.342;2023-07-13T01:34:02;72006.56;;;-148.52;68.63
3254;BME280;1639;42.804;23.342;2023-07-13T01:36:27;71996.22;;;-148.52;68.45
3254;BME280;1639;42.804;23.342;2023-07-13T01:38:52;71996.22;;;-148.52;68.66
3254;BME280;1639;42.804;23.342;2023-07-13T01:41:18;71998.28;;;-148.52;68.89
3254;BME280;1639;42.804;23.342;2023-07-13T01:43:43;71998.28;;;-148.52;69.22
3254;BME280;1639;42.804;23.342;2023-07-13T01:46:09;72012.75;;;-148.52;68.63
3254;BME280;1639;42.804;23.342;2023-07-13T01:48:34;72016.88;;;-148.52;68.55
3254;BME280;1639;42.804;23.342;2023-07-13T01:50:59;72018.94;;;-148.52;68.64
3254;BME280;1639;42.804;23.342;2023-07-13T01:53:25;72025.16;;;-148.52;69.19
3254;BME280;1639;42.804;23.342;2023-07-13T01:55:50;72031.38;;;-148.52;68.96
3254;BME280;1639;42.804;23.342;2023-07-13T01:58:15;72043.78;;;-148.52;69.02
3254;BME280;1639;42.804;23.342;2023-07-13T02:00:41;72054.09;;;-148.52;69.56
3254;BME280;1639;42.804;23.342;2023-07-13T02:03:06;72076.84;;;-148.52;70.48
3254;BME280;1639;42.804;23.342;2023-07-13T02:05:32;72089.25;;;-148.52;71.65
3254;BME280;1639;42.804;23.342;2023-07-13T02:07:57;72093.41;;;-148.52;72.49
3254;BME280;1639;42.804;23.342;2023-07-13T02:10:22;72091.31;;;-148.52;72.57
3254;BME280;1639;42.804;23.342;2023-07-13T02:12:48;72085.13;;;-148.52;72.33
3254;BME280;1639;42.804;23.342;2023-07-13T02:15:15;72087.19;;;-148.52;72.13
3254;BME280;1639;42.804;23.342;2023-07-13T02:17:41;72093.41;;;-148.52;72.24
3254;BME280;1639;42.804;23.342;2023-07-13T02:20:06;72093.41;;;-148.52;72.27
3254;BME280;1639;42.804;23.342;2023-07-13T02:22:33;72085.13;;;-148.52;72.10
3254;BME280;1639;42.804;23.342;2023-07-13T02:24:58;72091.31;;;-148.52;71.93
3254;BME280;1639;42.804;23.342;2023-07-13T02:27:24;72097.53;;;-148.52;71.78
3254;BME280;1639;42.804;23.342;2023-07-13T02:29:49;72105.81;;;-148.52;72.05
3254;BME280;1639;42.804;23.342;2023-07-13T02:32:17;72103.72;;;-148.52;72.14
3254;BME280;1639;42.804;23.342;2023-07-13T02:34:42;72097.53;;;-148.52;72.38
3254;BME280;1639;42.804;23.342;2023-07-13T02:37:07;72105.81;;;-148.52;72.14
3254;BME280;1639;42.804;23.342;2023-07-13T02:39:33;72107.88;;;-148.52;72.04
3254;BME280;1639;42.804;23.342;2023-07-13T02:41:59;72116.13;;;-148.52;71.93
3254;BME280;1639;42.804;23.342;2023-07-13T02:44:25;72124.41;;;-148.52;72.42
3254;BME280;1639;42.804;23.342;2023-07-13T02:46:50;72126.47;;;-148.52;72.89
3254;BME280;1639;42.804;23.342;2023-07-13T02:49:16;72120.28;;;-148.52;72.50
3254;BME280;1639;42.804;23.342;2023-07-13T02:51:41;72124.41;;;-148.52;72.29
3254;BME280;1639;42.804;23.342;2023-07-13T02:54:07;72138.88;;;-148.52;73.14
3254;BME280;1639;42.804;23.342;2023-07-13T02:56:33;72140.94;;;-148.52;73.70
3254;BME280;1639;42.804;23.342;2023-07-13T02:58:59;72134.75;;;-148.52;74.14
3254;BME280;1639;42.804;23.342;2023-07-13T03:01:25;72138.88;;;-148.52;74.55
3254;BME280;1639;42.804;23.342;2023-07-13T03:03:51;72136.81;;;-148.52;74.68
3254;BME280;1639;42.804;23.342;2023-07-13T03:06:17;72145.09;;;-148.52;75.17
3254;BME280;1639;42.804;23.342;2023-07-13T03:08:44;72149.22;;;-148.52;75.01
3254;BME280;1639;42.804;23.342;2023-07-13T03:11:13;72143.03;;;-148.52;75.15
3254;BME280;1639;42.804;23.342;2023-07-13T03:13:40;72145.09;;;-148.52;74.93
3254;BME280;1639;42.804;23.342;2023-07-13T03:16:06;72140.94;;;-148.52;75.40
3254;BME280;1639;42.804;23.342;2023-07-13T03:18:32;72138.88;;;-148.52;75.58
3254;BME280;1639;42.804;23.342;2023-07-13T03:20:58;72149.22;;;-148.52;75.89
3254;BME280;1639;42.804;23.342;2023-07-13T03:23:24;72149.22;;;-148.52;76.22
3254;BME280;1639;42.804;23.342;2023-07-13T03:25:50;72151.28;;;-148.52;76.70
3254;BME280;1639;42.804;23.342;2023-07-13T03:28:16;72157.50;;;-148.52;77.13
3254;BME280;1639;42.804;23.342;2023-07-13T03:30:42;72151.28;;;-148.52;76.60
3254;BME280;1639;42.804;23.342;2023-07-13T03:33:08;72147.16;;;-148.52;76.92
3254;BME280;1639;42.804;23.342;2023-07-13T03:35:34;72138.88;;;-148.52;76.32
3254;BME280;1639;42.804;23.342;2023-07-13T03:38:00;72128.53;;;-148.52;76.61
3254;BME280;1639;42.804;23.342;2023-07-13T03:40:26;72122.34;;;-148.52;76.22
3254;BME280;1639;42.804;23.342;2023-07-13T03:42:52;72124.41;;;-148.52;75.90
3254;BME280;1639;42.804;23.342;2023-07-13T03:45:18;72112.00;;;-148.52;75.69
3254;BME280;1639;42.804;23.342;2023-07-13T03:47:44;72112.00;;;-148.52;75.54
3254;BME280;1639;42.804;23.342;2023-07-13T03:50:10;72103.72;;;-148.52;75.04
3254;BME280;1639;42.804;23.342;2023-07-13T03:52:35;72097.53;;;-148.52;74.76
3254;BME280;1639;42.804;23.342;2023-07-13T03:55:01;72091.31;;;-148.52;75.03
3254;BME280;1639;42.804;23.342;2023-07-13T03:57:26;72093.41;;;-148.52;74.68
3254;BME280;1639;42.804;23.342;2023-07-13T03:59:51;72083.06;;;-148.52;75.48
3254;BME280;1639;42.804;23.342;2023-07-13T04:02:17;72091.31;;;-148.52;75.32
3254;BME280;1639;42.804;23.342;2023-07-13T04:04:43;72085.13;;;-148.52;75.67
3254;BME280;1639;42.804;23.342;2023-07-13T04:07:08;72081.00;;;-148.52;75.74
3254;BME280;1639;42.804;23.342;2023-07-13T04:09:34;72078.91;;;-148.52;76.06
3254;BME280;1639;42.804;23.342;2023-07-13T04:12:00;72076.84;;;-148.52;75.33
3254;BME280;1639;42.804;23.342;2023-07-13T04:14:25;72072.72;;;-148.52;75.15
3254;BME280;1639;42.804;23.342;2023-07-13T04:16:50;72062.38;;;-148.52;75.35
3254;BME280;1639;42.804;23.342;2023-07-13T04:19:16;72068.59;;;-148.52;74.73
3254;BME280;1639;42.804;23.342;2023-07-13T04:21:42;72114.06;;;-148.52;75.46
3254;BME280;1639;42.804;23.342;2023-07-13T04:24:08;72114.06;;;-148.52;74.69
3254;BME280;1639;42.804;23.342;2023-07-13T04:26:34;72095.47;;;-148.52;73.68
3254;BME280;1639;42.804;23.342;2023-07-13T04:29:02;72099.59;;;-148.52;76.21
3254;BME280;1639;42.804;23.342;2023-07-13T04:31:29;72136.81;;;-148.52;76.80
3254;BME280;1639;42.804;23.342;2023-07-13T04:33:55;72149.22;;;-148.52;79.30
3254;BME280;1639;42.804;23.342;2023-07-13T04:36:20;72143.03;;;-148.52;82.38
3254;BME280;1639;42.804;23.342;2023-07-13T04:38:46;72120.28;;;-148.52;81.21
3254;BME280;1639;42.804;23.342;2023-07-13T04:41:12;72101.66;;;-148.52;80.62
3254;BME280;1639;42.804;23.342;2023-07-13T04:43:38;72091.31;;;-148.52;78.68
3254;BME280;1639;42.804;23.342;2023-07-13T04:46:09;72074.78;;;-148.52;76.87
3254;BME280;1639;42.804;23.342;2023-07-13T04:48:36;72070.66;;;-148.52;78.04
3254;BME280;1639;42.804;23.342;2023-07-13T04:51:02;72072.72;;;-148.52;76.91
3254;BME280;1639;42.804;23.342;2023-07-13T04:53:29;72052.03;;;-148.52;77.09
3254;BME280;1639;42.804;23.342;2023-07-13T04:55:55;72033.44;;;-148.52;76.51
3254;BME280;1639;42.804;23.342;2023-07-13T04:58:21;72072.72;;;-148.52;73.89
3254;BME280;1639;42.804;23.342;2023-07-13T05:00:46;72045.84;;;-148.52;74.27
3254;BME280;1639;42.804;23.342;2023-07-13T05:03:12;72014.81;;;-148.52;75.40
3254;BME280;1639;42.804;23.342;2023-07-13T05:05:37;72016.88;;;-148.52;74.85
3254;BME280;1639;42.804;23.342;2023-07-13T05:08:03;71992.06;;;-148.52;74.32
3254;BME280;1639;42.804;23.342;2023-07-13T05:10:28;71963.13;;;-148.52;74.11
3254;BME280;1639;42.804;23.342;2023-07-13T05:12:54;71956.94;;;-148.52;71.92
3254;BME280;1639;42.804;23.342;2023-07-13T05:15:21;71940.38;;;-148.52;70.42
3254;BME280;1639;42.804;23.342;2023-07-13T05:17:48;71930.03;;;-148.52;70.21
3254;BME280;1639;42.804;23.342;2023-07-13T05:20:13;71917.63;;;-148.52;69.27
3254;BME280;1639;42.804;23.342;2023-07-13T05:22:39;71903.16;;;-148.52;68.65
3254;BME280;1639;42.804;23.342;2023-07-13T05:25:05;71884.56;;;-148.52;68.69
3254;BME280;1639;42.804;23.342;2023-07-13T05:27:32;71868.00;;;-148.52;67.18
3254;BME280;1639;42.804;23.342;2023-07-13T05:29:57;71853.53;;;-148.52;66.98
3254;BME280;1639;42.804;23.342;2023-07-13T05:32:22;71859.75;;;-148.52;67.07
3254;BME280;1639;42.804;23.342;2023-07-13T05:34:48;71839.06;;;-148.52;68.06
3254;BME280;1639;42.804;23.342;2023-07-13T05:37:13;71824.59;;;-148.52;67.81
3254;BME280;1639;42.804;23.342;2023-07-13T05:39:39;71812.19;;;-148.52;65.77
3254;BME280;1639;42.804;23.342;2023-07-13T05:42:05;71803.91;;;-148.52;65.33
3254;BME280;1639;42.804;23.342;2023-07-13T05:44:31;71785.31;;;-148.52;63.89
3254;BME280;1639;42.804;23.342;2023-07-13T05:46:56;71768.78;;;-148.52;63.42
3254;BME280;1639;42.804;23.342;2023-07-13T05:49:22;71756.38;;;-148.52;63.74
3254;BME280;1639;42.804;23.342;2023-07-13T05:51:48;71748.09;;;-148.52;62.20
3254;BME280;1639;42.804;23.342;2023-07-13T05:54:13;71725.34;;;-148.52;62.79
3254;BME280;1639;42.804;23.342;2023-07-13T05:56:39;71729.50;;;-148.52;60.45
3254;BME280;1639;42.804;23.342;2023-07-13T05:59:04;71727.41;;;-148.52;61.26
3254;BME280;1639;42.804;23.342;2023-07-13T06:01:30;71762.56;;;-148.52;62.69
3254;BME280;1639;42.804;23.342;2023-07-13T06:03:56;71750.16;;;-148.52;62.73
3254;BME280;1639;42.804;23.342;2023-07-13T06:06:21;71723.28;;;-148.52;62.34
3254;BME280;1639;42.804;23.342;2023-07-13T06:08:47;71690.19;;;-148.52;61.67
3254;BME280;1639;42.804;23.342;2023-07-13T06:11:15;71667.47;;;-148.52;61.13
3254;BME280;1639;42.804;23.342;2023-07-13T06:13:41;71657.13;;;-148.52;60.64
3254;BME280;1639;42.804;23.342;2023-07-13T06:16:06;71642.66;;;-148.52;60.76
3254;BME280;1639;42.804;23.342;2023-07-13T06:18:35;71653.00;;;-148.52;57.78
3254;BME280;1639;42.804;23.342;2023-07-13T06:21:05;71655.06;;;-148.52;58.07
3254;BME280;1639;42.804;23.342;2023-07-13T06:23:31;71657.13;;;-148.52;58.03
3254;BME280;1639;42.804;23.342;2023-07-13T06:25:56;71686.06;;;-148.52;60.02
3254;BME280;1639;42.804;23.342;2023-07-13T06:28:22;71657.13;;;-148.52;60.20
3254;BME280;1639;42.804;23.342;2023-07-13T06:30:47;71632.31;;;-148.52;58.71
3254;BME280;1639;42.804;23.342;2023-07-13T06:33:13;71642.66;;;-148.52;58.87
3254;BME280;1639;42.804;23.342;2023-07-13T06:35:38;71655.06;;;-148.52;60.31
3254;BME280;1639;42.804;23.342;2023-07-13T06:38:03;71621.97;;;-148.52;58.20
3254;BME280;1639;42.804;23.342;2023-07-13T06:40:30;71578.56;;;-148.52;57.45
3254;BME280;1639;42.804;23.342;2023-07-13T06:42:55;71537.22;;;-148.52;57.05
3254;BME280;1639;42.804;23.342;2023-07-13T06:45:21;71520.66;;;-148.52;56.26
3254;BME280;1639;42.804;23.342;2023-07-13T06:47:46;71489.66;;;-148.52;54.84
3254;BME280;1639;42.804;23.342;2023-07-13T06:50:12;71487.59;;;-148.52;53.91
3254;BME280;1639;42.804;23.342;2023-07-13T06:52:37;71512.41;;;-148.52;54.68
3254;BME280;1639;42.804;23.342;2023-07-13T06:55:03;71464.84;;;-148.52;54.43
3254;BME280;1639;42.804;23.342;2023-07-13T06:57:28;71435.91;;;-148.52;54.96
3254;BME280;1639;42.804;23.342;2023-07-13T06:59:53;71421.44;;;-148.52;53.04
3254;BME280;1639;42.804;23.342;2023-07-13T07:02:19;71380.09;;;-148.52;53.02
3254;BME280;1639;42.804;23.342;2023-07-13T07:04:44;71334.59;;;-148.52;51.45
3254;BME280;1639;42.804;23.342;2023-07-13T07:07:09;71289.13;;;-148.52;49.83
3254;BME280;1639;42.804;23.342;2023-07-13T07:09:35;71256.03;;;-148.52;48.84
3254;BME280;1639;42.804;23.342;2023-07-13T07:12:00;71227.09;;;-148.52;49.45
3254;BME280;1639;42.804;23.342;2023-07-13T07:14:26;71185.75;;;-148.52;48.29
3254;BME280;1639;42.804;23.342;2023-07-13T07:16:51;71138.22;;;-148.52;46.40
3254;BME280;1639;42.804;23.342;2023-07-13T07:19:16;71119.59;;;-148.52;46.48
3254;BME280;1639;42.804;23.342;2023-07-13T07:21:42;71080.31;;;-148.52;46.11
3254;BME280;1639;42.804;23.342;2023-07-13T07:24:07;71038.97;;;-148.52;44.94
3254;BME280;1639;42.804;23.342;2023-07-13T07:26:33;71020.38;;;-148.52;44.82
3254;BME280;1639;42.804;23.342;2023-07-13T07:28:58;70987.31;;;-148.52;44.63
3254;BME280;1639;42.804;23.342;2023-07-13T07:31:24;70956.28;;;-148.52;44.20
3254;BME280;1639;42.804;23.342;2023-07-13T07:33:49;70917.03;;;-148.52;43.01
3254;BME280;1639;42.804;23.342;2023-07-13T07:36:15;70886.00;;;-148.52;40.55
3254;BME280;1639;42.804;23.342;2023-07-13T07:38:41;70859.13;;;-148.52;41.88
3254;BME280;1639;42.804;23.342;2023-07-13T07:41:07;70834.34;;;-148.52;41.95
3254;BME280;1639;42.804;23.342;2023-07-13T07:43:32;70803.31;;;-148.52;40.20
3254;BME280;1639;42.804;23.342;2023-07-13T07:45:58;70776.47;;;-148.52;39.51
3254;BME280;1639;42.804;23.342;2023-07-13T07:48:23;70774.38;;;-148.52;39.19
3254;BME280;1639;42.804;23.342;2023-07-13T07:50:49;70751.66;;;-148.52;39.25
3254;BME280;1639;42.804;23.342;2023-07-13T07:53:14;70720.66;;;-148.52;40.07
3254;BME280;1639;42.804;23.342;2023-07-13T07:55:39;70695.84;;;-148.52;38.31
3254;BME280;1639;42.804;23.342;2023-07-13T07:58:05;70681.38;;;-148.52;39.09
3254;BME280;1639;42.804;23.342;2023-07-13T08:00:31;70646.22;;;-148.52;39.03
3254;BME280;1639;42.804;23.342;2023-07-13T08:02:58;70648.28;;;-148.52;36.62
3254;BME280;1639;42.804;23.342;2023-07-13T08:05:24;70615.22;;;-148.52;36.25
3254;BME280;1639;42.804;23.342;2023-07-13T08:07:51;70600.75;;;-148.52;37.16
3254;BME280;1639;42.804;23.342;2023-07-13T08:10:17;70594.56;;;-148.52;36.34
3254;BME280;1639;42.804;23.342;2023-07-13T08:12:42;70588.34;;;-148.52;35.67
3254;BME280;1639;42.804;23.342;2023-07-13T08:15:11;70563.56;;;-148.52;36.35
3254;BME280;1639;42.804;23.342;2023-07-13T08:17:37;70567.69;;;-148.52;37.53
3254;BME280;1639;42.804;23.342;2023-07-13T08:20:03;70555.28;;;-148.52;37.17
3254;BME280;1639;42.804;23.342;2023-07-13T08:22:29;70582.16;;;-148.52;37.20
3254;BME280;1639;42.804;23.342;2023-07-13T08:24:54;70544.94;;;-148.52;35.61
3254;BME280;1639;42.804;23.342;2023-07-13T08:27:24;70505.69;;;-148.52;35.89
3254;BME280;1639;42.804;23.342;2023-07-13T08:29:50;70482.94;;;-148.52;34.62
3254;BME280;1639;42.804;23.342;2023-07-13T08:32:17;70466.41;;;-148.52;33.89
3254;BME280;1639;42.804;23.342;2023-07-13T08:34:43;70427.13;;;-148.52;34.69
3254;BME280;1639;42.804;23.342;2023-07-13T08:37:09;70441.59;;;-148.52;35.42
3254;BME280;1639;42.804;23.342;2023-07-13T08:39:35;70458.13;;;-148.52;34.88
3254;BME280;1639;42.804;23.342;2023-07-13T08:42:05;70458.13;;;-148.52;35.46
3254;BME280;1639;42.804;23.342;2023-07-13T08:47:26;70462.28;;;-148.52;34.06
3254;BME280;1639;42.804;23.342;2023-07-13T08:49:53;70536.69;;;-148.52;35.46
3254;BME280;1639;42.804;23.342;2023-07-13T08:52:31;70462.28;;;-148.52;36.88
3254;BME280;1639;42.804;23.342;2023-07-13T08:55:05;70466.41;;;-148.52;34.47
3254;BME280;1639;42.804;23.342;2023-07-13T08:57:34;70518.09;;;-148.52;35.91
3254;BME280;1639;42.804;23.342;2023-07-13T09:00:01;70507.75;;;-148.52;34.37
3254;BME280;1639;42.804;23.342;2023-07-13T09:05:27;70505.69;;;-148.52;34.89
3254;BME280;1639;42.804;23.342;2023-07-13T09:10:41;70429.19;;;-148.52;34.42
3254;BME280;1639;42.804;23.342;2023-07-13T09:13:28;70404.41;;;-148.52;35.57
3254;BME280;1639;42.804;23.342;2023-07-13T09:15:55;70400.25;;;-148.52;33.78
3254;BME280;1639;42.804;23.342;2023-07-13T09:18:37;70396.13;;;-148.52;33.08
3254;BME280;1639;42.804;23.342;2023-07-13T09:21:10;70400.25;;;-148.52;35.80
3254;BME280;1639;42.804;23.342;2023-07-13T09:23:38;70394.06;;;-148.52;34.99
3254;BME280;1639;42.804;23.342;2023-07-13T09:26:13;70394.06;;;-148.52;32.05
3254;BME280;1639;42.804;23.342;2023-07-13T09:28:49;70412.66;;;-148.52;32.61
3254;BME280;1639;42.804;23.342;2023-07-13T09:31:33;70406.47;;;-148.52;32.35
3254;BME280;1639;42.804;23.342;2023-07-13T09:34:02;70394.06;;;-148.52;35.57
3254;BME280;1639;42.804;23.342;2023-07-13T09:36:32;70412.66;;;-148.52;33.13
3254;BME280;1639;42.804;23.342;2023-07-13T09:39:04;70379.59;;;-148.52;33.60
3254;BME280;1639;42.804;23.342;2023-07-13T09:44:28;70375.47;;;-148.52;30.90
3254;BME280;1639;42.804;23.342;2023-07-13T09:46:56;70377.53;;;-148.52;31.39
3254;BME280;1639;42.804;23.342;2023-07-13T09:49:27;70354.78;;;-148.52;32.21
3254;BME280;1639;42.804;23.342;2023-07-13T09:52:03;70313.47;;;-148.52;31.54
3254;BME280;1639;42.804;23.342;2023-07-13T09:54:29;70280.38;;;-148.52;32.32
3254;BME280;1639;42.804;23.342;2023-07-13T09:56:56;70232.84;;;-148.52;33.50
3254;BME280;1639;42.804;23.342;2023-07-13T09:59:23;70255.59;;;-148.52;30.03
3254;BME280;1639;42.804;23.342;2023-07-13T10:01:50;70296.94;;;-148.52;30.66
3254;BME280;1639;42.804;23.342;2023-07-13T10:04:19;70294.84;;;-148.52;31.49
3254;BME280;1639;42.804;23.342;2023-07-13T10:06:46;70292.78;;;-148.52;32.31
3254;BME280;1639;42.804;23.342;2023-07-13T10:09:17;70263.84;;;-148.52;32.21
3254;BME280;1639;42.804;23.342;2023-07-13T10:11:44;70245.25;;;-148.52;31.43
3254;BME280;1639;42.804;23.342;2023-07-13T10:14:20;70237.00;;;-148.52;29.43
3254;BME280;1639;42.804;23.342;2023-07-13T10:16:50;70197.72;;;-148.52;33.23
3254;BME280;1639;42.804;23.342;2023-07-13T10:19:22;70193.59;;;-148.52;30.88
3254;BME280;1639;42.804;23.342;2023-07-13T10:21:57;70177.06;;;-148.52;30.73
3254;BME280;1639;42.804;23.342;2023-07-13T10:24:30;70172.91;;;-148.52;27.23
3254;BME280;1639;42.804;23.342;2023-07-13T10:29:37;70191.53;;;-148.52;28.84
3254;BME280;1639;42.804;23.342;2023-07-13T10:32:15;70210.13;;;-148.52;28.09
3254;BME280;1639;42.804;23.342;2023-07-13T10:34:44;70226.66;;;-148.52;28.27
3254;BME280;1639;42.804;23.342;2023-07-13T10:37:21;70210.13;;;-148.52;30.28
3254;BME280;1639;42.804;23.342;2023-07-13T10:39:49;70218.38;;;-148.52;27.98
3254;BME280;1639;42.804;23.342;2023-07-13T10:42:23;70212.19;;;-148.52;29.50
3254;BME280;1639;42.804;23.342;2023-07-13T10:44:51;70201.84;;;-148.52;29.48
3254;BME280;1639;42.804;23.342;2023-07-13T10:47:16;70177.06;;;-148.52;28.85
3254;BME280;1639;42.804;23.342;2023-07-13T10:49:43;70177.06;;;-148.52;27.16
3254;BME280;1639;42.804;23.342;2023-07-13T10:52:49;70216.31;;;-148.52;27.75
3254;BME280;1639;42.804;23.342;2023-07-13T10:55:35;70216.31;;;-148.52;27.75
3254;BME280;1639;42.804;23.342;2023-07-13T10:58:03;70214.25;;;-148.52;27.90
3254;BME280;1639;42.804;23.342;2023-07-13T11:00:43;70224.59;;;-148.52;28.29
3254;BME280;1639;42.804;23.342;2023-07-13T11:03:14;70224.59;;;-148.52;28.05
3254;BME280;1639;42.804;23.342;2023-07-13T11:05:40;70234.91;;;-148.52;27.90
3254;BME280;1639;42.804;23.342;2023-07-13T11:08:36;70257.66;;;-148.52;28.20
3254;BME280;1639;42.804;23.342;2023-07-13T11:11:03;70222.53;;;-148.52;29.05
3254;BME280;1639;42.804;23.342;2023-07-13T11:13:55;70210.13;;;-148.52;27.39
3254;BME280;1639;42.804;23.342;2023-07-13T11:19:08;70208.06;;;-148.52;27.90
3254;BME280;1639;42.804;23.342;2023-07-13T11:21:34;70197.72;;;-148.52;27.28
3254;BME280;1639;42.804;23.342;2023-07-13T11:24:16;70203.91;;;-148.52;28.40
3254;BME280;1639;42.804;23.342;2023-07-13T11:26:52;70183.25;;;-148.52;27.81
3254;BME280;1639;42.804;23.342;2023-07-13T11:31:51;70127.44;;;-148.52;27.46
3254;BME280;1639;42.804;23.342;2023-07-13T11:34:24;70129.50;;;-148.52;26.84
3254;BME280;1639;42.804;23.342;2023-07-13T11:36:52;70123.31;;;-148.52;27.85
3254;BME280;1639;42.804;23.342;2023-07-13T11:39:28;70125.38;;;-148.52;27.18
3254;BME280;1639;42.804;23.342;2023-07-13T11:42:02;70127.44;;;-148.52;28.35
3254;BME280;1639;42.804;23.342;2023-07-13T11:44:30;70143.97;;;-148.52;28.26
3254;BME280;1639;42.804;23.342;2023-07-13T11:46:57;70123.31;;;-148.52;27.45
3254;BME280;1639;42.804;23.342;2023-07-13T11:49:28;70096.44;;;-148.52;28.88
3254;BME280;1639;42.804;23.342;2023-07-13T11:51:54;70098.50;;;-148.52;27.54
3254;BME280;1639;42.804;23.342;2023-07-13T11:56:55;70117.13;;;-148.52;28.53
3254;BME280;1639;42.804;23.342;2023-07-13T11:59:23;70106.78;;;-148.52;28.99
3254;BME280;1639;42.804;23.342;2023-07-13T12:01:52;70081.97;;;-148.52;27.89
3254;BME280;1639;42.804;23.342;2023-07-13T12:04:27;70061.31;;;-148.52;28.32
3254;BME280;1639;42.804;23.342;2023-07-13T12:07:07;70063.38;;;-148.52;27.89
3254;BME280;1639;42.804;23.342;2023-07-13T12:09:37;70032.38;;;-148.52;27.87
3254;BME280;1639;42.804;23.342;2023-07-13T12:12:08;70030.31;;;-148.52;28.10
3254;BME280;1639;42.804;23.342;2023-07-13T12:14:35;70036.50;;;-148.52;28.27
3254;BME280;1639;42.804;23.342;2023-07-13T12:17:00;70009.66;;;-148.52;29.42
3254;BME280;1639;42.804;23.342;2023-07-13T12:19:27;70001.38;;;-148.52;28.41
3254;BME280;1639;42.804;23.342;2023-07-13T12:21:56;70019.97;;;-148.52;27.16
3254;BME280;1639;42.804;23.342;2023-07-13T12:24:22;69993.13;;;-148.52;27.88
3254;BME280;1639;42.804;23.342;2023-07-13T12:27:02;69974.50;;;-148.52;26.41
3254;BME280;1639;42.804;23.342;2023-07-13T12:29:30;69953.84;;;-148.52;27.19
3254;BME280;1639;42.804;23.342;2023-07-13T12:31:56;69924.91;;;-148.52;27.69
3254;BME280;1639;42.804;23.342;2023-07-13T12:34:23;69908.38;;;-148.52;26.85
3254;BME280;1639;42.804;23.342;2023-07-13T12:36:59;69904.25;;;-148.52;26.54
3254;BME280;1639;42.804;23.342;2023-07-13T12:39:46;69895.97;;;-148.52;25.80
3254;BME280;1639;42.804;23.342;2023-07-13T12:42:27;69902.19;;;-148.52;26.04
3254;BME280;1639;42.804;23.342;2023-07-13T12:44:58;69885.66;;;-148.52;26.68
3254;BME280;1639;42.804;23.342;2023-07-13T12:47:25;69887.72;;;-148.52;26.27
3254;BME280;1639;42.804;23.342;2023-07-13T12:49:58;69916.66;;;-148.52;26.49
3254;BME280;1639;42.804;23.342;2023-07-13T12:52:34;69933.19;;;-148.52;26.47
3254;BME280;1639;42.804;23.342;2023-07-13T12:55:12;69935.25;;;-148.52;26.87
3254;BME280;1639;42.804;23.342;2023-07-13T12:57:43;69924.91;;;-148.52;28.24
3254;BME280;1639;42.804;23.342;2023-07-13T13:00:35;69906.31;;;-148.52;27.84
3254;BME280;1639;42.804;23.342;2023-07-13T13:03:13;69914.59;;;-148.52;27.01
3254;BME280;1639;42.804;23.342;2023-07-13T13:05:44;69900.13;;;-148.52;26.83
3254;BME280;1639;42.804;23.342;2023-07-13T13:08:11;69912.50;;;-148.52;27.09
3254;BME280;1639;42.804;23.342;2023-07-13T13:10:37;69929.03;;;-148.52;27.17
3254;BME280;1639;42.804;23.342;2023-07-13T13:13:02;69947.66;;;-148.52;26.71
3254;BME280;1639;42.804;23.342;2023-07-13T13:15:28;69926.97;;;-148.52;26.83